sensor_id;sensor_type;location;lat;lon;timestamp;P1;durP1;ratioP1;P2;durP2;ratioP2
66957;SDS011;53892;43.258;-2.932;2022-11-23T00:01:48;0.57;;;0.15;;
66957;SDS011;53892;43.258;-2.932;2022-11-23T00:04:14;0.30;;;0.10;;
66957;SDS011;53892;43.258;-2.932;2022-11-23T00:06:40;1.42;;;0.52;;
66957;SDS011;53892;43.258;-2.932;2022-11-23T00:09:10;0.95;;;0.10;;
66957;SDS011;53892;43.258;-2.932;2022-11-23T00:11:36;0.73;;;0.20;;
66957;SDS011;53892;43.258;-2.932;2022-11-23T00:14:03;1.38;;;0.10;;
66957;SDS011;53892;43.258;-2.932;2022-11-23T00:16:29;0.70;;;0.10;;
66957;SDS011;53892;43.258;-2.932;2022-11-23T00:18:56;0.75;;;0.20;;
66957;SDS011;53892;43.258;-2.932;2022-11-23T00:21:23;6.03;;;0.50;;
66957;SDS011;53892;43.258;-2.932;2022-11-23T00:23:49;0.90;;;0.20;;
66957;SDS011;53892;43.258;-2.932;2022-11-23T00:26:16;0.68;;;0.20;;
66957;SDS011;53892;43.258;-2.932;2022-11-23T00:28:43;0.98;;;0.20;;
66957;SDS011;53892;43.258;-2.932;2022-11-23T00:31:10;2.65;;;0.20;;
66957;SDS011;53892;43.258;-2.932;2022-11-23T00:33:36;1.00;;;0.13;;
66957;SDS011;53892;43.258;-2.932;2022-11-23T00:36:03;1.00;;;0.20;;
66957;SDS011;53892;43.258;-2.932;2022-11-23T00:38:30;0.32;;;0.10;;
66957;SDS011;53892;43.258;-2.932;2022-11-23T00:41:00;2.92;;;0.10;;
66957;SDS011;53892;43.258;-2.932;2022-11-23T00:43:27;0.75;;;0.10;;
66957;SDS011;53892;43.258;-2.932;2022-11-23T00:46:03;6.13;;;0.40;;
66957;SDS011;53892;43.258;-2.932;2022-11-23T00:48:29;1.77;;;0.20;;
66957;SDS011;53892;43.258;-2.932;2022-11-23T00:50:55;5.25;;;0.32;;
66957;SDS011;53892;43.258;-2.932;2022-11-23T00:53:22;2.17;;;0.10;;
66957;SDS011;53892;43.258;-2.932;2022-11-23T00:55:51;0.10;;;0.00;;
66957;SDS011;53892;43.258;-2.932;2022-11-23T00:58:17;4.15;;;0.30;;
66957;SDS011;53892;43.258;-2.932;2022-11-23T01:00:44;0.10;;;0.00;;
66957;SDS011;53892;43.258;-2.932;2022-11-23T01:03:10;0.73;;;0.03;;
66957;SDS011;53892;43.258;-2.932;2022-11-23T01:05:36;5.97;;;0.10;;
66957;SDS011;53892;43.258;-2.932;2022-11-23T01:08:03;5.53;;;0.08;;
66957;SDS011;53892;43.258;-2.932;2022-11-23T01:10:29;4.78;;;0.08;;
66957;SDS011;53892;43.258;-2.932;2022-11-23T01:12:55;0.05;;;0.00;;
66957;SDS011;53892;43.258;-2.932;2022-11-23T01:15:22;0.10;;;0.00;;
66957;SDS011;53892;43.258;-2.932;2022-11-23T01:17:48;1.25;;;0.00;;
66957;SDS011;53892;43.258;-2.932;2022-11-23T01:20:14;1.05;;;0.00;;
66957;SDS011;53892;43.258;-2.932;2022-11-23T01:22:40;1.48;;;0.00;;
66957;SDS011;53892;43.258;-2.932;2022-11-23T01:25:06;0.00;;;0.00;;
66957;SDS011;53892;43.258;-2.932;2022-11-23T01:27:33;0.15;;;0.00;;
66957;SDS011;53892;43.258;-2.932;2022-11-23T01:29:59;0.03;;;0.00;;
66957;SDS011;53892;43.258;-2.932;2022-11-23T01:32:25;0.00;;;0.00;;
66957;SDS011;53892;43.258;-2.932;2022-11-23T01:34:51;0.05;;;0.00;;
66957;SDS011;53892;43.258;-2.932;2022-11-23T01:37:17;0.00;;;0.00;;
66957;SDS011;53892;43.258;-2.932;2022-11-23T01:39:43;0.00;;;0.00;;
66957;SDS011;53892;43.258;-2.932;2022-11-23T01:42:10;1.55;;;0.00;;
66957;SDS011;53892;43.258;-2.932;2022-11-23T01:44:36;1.10;;;0.00;;
66957;SDS011;53892;43.258;-2.932;2022-11-23T01:47:06;1.65;;;0.00;;
66957;SDS011;53892;43.258;-2.932;2022-11-23T01:49:54;2.55;;;0.00;;
66957;SDS011;53892;43.258;-2.932;2022-11-23T01:52:21;1.73;;;0.00;;
66957;SDS011;53892;43.258;-2.932;2022-11-23T01:54:51;0.00;;;0.00;;
66957;SDS011;53892;43.258;-2.932;2022-11-23T01:57:27;0.00;;;0.00;;
66957;SDS011;53892;43.258;-2.932;2022-11-23T01:59:57;0.00;;;0.00;;
66957;SDS011;53892;43.258;-2.932;2022-11-23T02:02:23;4.28;;;0.28;;
66957;SDS011;53892;43.258;-2.932;2022-11-23T02:04:51;5.45;;;0.77;;
66957;SDS011;53892;43.258;-2.932;2022-11-23T02:07:18;0.30;;;0.10;;
66957;SDS011;53892;43.258;-2.932;2022-11-23T02:09:45;1.70;;;0.00;;
66957;SDS011;53892;43.258;-2.932;2022-11-23T02:12:12;0.45;;;0.00;;
66957;SDS011;53892;43.258;-2.932;2022-11-23T02:14:39;0.15;;;0.00;;
66957;SDS011;53892;43.258;-2.932;2022-11-23T02:17:05;3.17;;;0.00;;
66957;SDS011;53892;43.258;-2.932;2022-11-23T02:19:39;2.97;;;0.00;;
66957;SDS011;53892;43.258;-2.932;2022-11-23T02:22:13;0.15;;;0.00;;
66957;SDS011;53892;43.258;-2.932;2022-11-23T02:24:44;0.17;;;0.00;;
66957;SDS011;53892;43.258;-2.932;2022-11-23T02:27:12;0.10;;;0.00;;
66957;SDS011;53892;43.258;-2.932;2022-11-23T02:29:38;0.00;;;0.00;;
66957;SDS011;53892;43.258;-2.932;2022-11-23T02:32:04;0.98;;;0.00;;
66957;SDS011;53892;43.258;-2.932;2022-11-23T02:34:30;7.70;;;0.68;;
66957;SDS011;53892;43.258;-2.932;2022-11-23T02:36:56;3.92;;;0.08;;
66957;SDS011;53892;43.258;-2.932;2022-11-23T02:39:29;4.38;;;0.20;;
66957;SDS011;53892;43.258;-2.932;2022-11-23T02:41:56;1.38;;;0.00;;
66957;SDS011;53892;43.258;-2.932;2022-11-23T02:46:48;4.07;;;0.00;;
66957;SDS011;53892;43.258;-2.932;2022-11-23T02:49:14;1.55;;;0.10;;
66957;SDS011;53892;43.258;-2.932;2022-11-23T02:51:40;20.08;;;2.03;;
66957;SDS011;53892;43.258;-2.932;2022-11-23T02:54:06;25.33;;;3.25;;
66957;SDS011;53892;43.258;-2.932;2022-11-23T02:56:33;28.92;;;3.60;;
66957;SDS011;53892;43.258;-2.932;2022-11-23T02:58:59;16.05;;;1.30;;
66957;SDS011;53892;43.258;-2.932;2022-11-23T03:01:25;20.90;;;3.30;;
66957;SDS011;53892;43.258;-2.932;2022-11-23T03:03:52;9.05;;;0.65;;
66957;SDS011;53892;43.258;-2.932;2022-11-23T03:06:18;10.10;;;1.10;;
66957;SDS011;53892;43.258;-2.932;2022-11-23T03:08:44;4.65;;;0.45;;
66957;SDS011;53892;43.258;-2.932;2022-11-23T03:11:10;15.43;;;0.85;;
66957;SDS011;53892;43.258;-2.932;2022-11-23T03:13:36;13.02;;;2.30;;
66957;SDS011;53892;43.258;-2.932;2022-11-23T03:16:02;30.08;;;3.08;;
66957;SDS011;53892;43.258;-2.932;2022-11-23T03:18:29;23.73;;;2.83;;
66957;SDS011;53892;43.258;-2.932;2022-11-23T03:20:59;18.40;;;1.65;;
66957;SDS011;53892;43.258;-2.932;2022-11-23T03:23:26;12.02;;;1.20;;
66957;SDS011;53892;43.258;-2.932;2022-11-23T03:25:56;16.15;;;1.30;;
66957;SDS011;53892;43.258;-2.932;2022-11-23T03:28:22;11.93;;;1.33;;
66957;SDS011;53892;43.258;-2.932;2022-11-23T03:30:49;12.85;;;2.70;;
66957;SDS011;53892;43.258;-2.932;2022-11-23T03:33:15;42.80;;;4.22;;
66957;SDS011;53892;43.258;-2.932;2022-11-23T03:35:41;31.25;;;4.47;;
66957;SDS011;53892;43.258;-2.932;2022-11-23T03:38:07;42.50;;;4.03;;
66957;SDS011;53892;43.258;-2.932;2022-11-23T03:40:33;16.63;;;1.77;;
66957;SDS011;53892;43.258;-2.932;2022-11-23T03:43:00;18.13;;;2.58;;
66957;SDS011;53892;43.258;-2.932;2022-11-23T03:45:26;21.63;;;3.28;;
66957;SDS011;53892;43.258;-2.932;2022-11-23T03:47:52;24.80;;;2.28;;
66957;SDS011;53892;43.258;-2.932;2022-11-23T03:50:18;15.55;;;2.42;;
66957;SDS011;53892;43.258;-2.932;2022-11-23T03:52:44;17.50;;;2.40;;
66957;SDS011;53892;43.258;-2.932;2022-11-23T03:55:13;24.35;;;2.22;;
66957;SDS011;53892;43.258;-2.932;2022-11-23T03:57:39;7.53;;;0.90;;
66957;SDS011;53892;43.258;-2.932;2022-11-23T04:00:05;3.90;;;0.10;;
66957;SDS011;53892;43.258;-2.932;2022-11-23T04:02:32;3.15;;;0.10;;
66957;SDS011;53892;43.258;-2.932;2022-11-23T04:04:59;0.45;;;0.00;;
66957;SDS011;53892;43.258;-2.932;2022-11-23T04:07:25;0.82;;;0.00;;
66957;SDS011;53892;43.258;-2.932;2022-11-23T04:09:51;0.60;;;0.05;;
66957;SDS011;53892;43.258;-2.932;2022-11-23T04:12:17;1.88;;;0.00;;
66957;SDS011;53892;43.258;-2.932;2022-11-23T04:14:43;0.68;;;0.00;;
66957;SDS011;53892;43.258;-2.932;2022-11-23T04:17:10;0.88;;;0.00;;
66957;SDS011;53892;43.258;-2.932;2022-11-23T04:19:36;4.00;;;0.00;;
66957;SDS011;53892;43.258;-2.932;2022-11-23T04:22:02;3.38;;;0.10;;
66957;SDS011;53892;43.258;-2.932;2022-11-23T04:24:28;3.13;;;0.20;;
66957;SDS011;53892;43.258;-2.932;2022-11-23T04:26:54;2.80;;;0.20;;
66957;SDS011;53892;43.258;-2.932;2022-11-23T04:29:20;3.35;;;0.32;;
66957;SDS011;53892;43.258;-2.932;2022-11-23T04:31:46;2.42;;;0.10;;
66957;SDS011;53892;43.258;-2.932;2022-11-23T04:34:13;1.75;;;0.10;;
66957;SDS011;53892;43.258;-2.932;2022-11-23T04:36:39;2.38;;;0.20;;
66957;SDS011;53892;43.258;-2.932;2022-11-23T04:39:05;6.60;;;0.15;;
66957;SDS011;53892;43.258;-2.932;2022-11-23T04:41:31;6.85;;;0.10;;
66957;SDS011;53892;43.258;-2.932;2022-11-23T04:43:57;5.55;;;0.15;;
66957;SDS011;53892;43.258;-2.932;2022-11-23T04:46:23;4.78;;;0.20;;
66957;SDS011;53892;43.258;-2.932;2022-11-23T04:48:50;1.17;;;0.10;;
66957;SDS011;53892;43.258;-2.932;2022-11-23T04:51:16;1.30;;;0.10;;
66957;SDS011;53892;43.258;-2.932;2022-11-23T04:53:42;2.92;;;0.10;;
66957;SDS011;53892;43.258;-2.932;2022-11-23T04:56:08;1.77;;;0.10;;
66957;SDS011;53892;43.258;-2.932;2022-11-23T04:58:34;2.95;;;0.20;;
66957;SDS011;53892;43.258;-2.932;2022-11-23T05:01:00;3.95;;;0.57;;
66957;SDS011;53892;43.258;-2.932;2022-11-23T05:03:26;1.85;;;0.10;;
66957;SDS011;53892;43.258;-2.932;2022-11-23T05:05:53;4.53;;;0.10;;
66957;SDS011;53892;43.258;-2.932;2022-11-23T05:08:19;5.93;;;0.20;;
66957;SDS011;53892;43.258;-2.932;2022-11-23T05:10:45;3.40;;;0.30;;
66957;SDS011;53892;43.258;-2.932;2022-11-23T05:13:11;4.75;;;0.30;;
66957;SDS011;53892;43.258;-2.932;2022-11-23T05:15:37;1.45;;;0.10;;
66957;SDS011;53892;43.258;-2.932;2022-11-23T05:18:04;2.67;;;0.17;;
66957;SDS011;53892;43.258;-2.932;2022-11-23T05:20:31;8.07;;;0.40;;
66957;SDS011;53892;43.258;-2.932;2022-11-23T05:22:57;4.57;;;0.20;;
66957;SDS011;53892;43.258;-2.932;2022-11-23T05:25:24;2.10;;;0.55;;
66957;SDS011;53892;43.258;-2.932;2022-11-23T05:27:50;7.28;;;0.25;;
66957;SDS011;53892;43.258;-2.932;2022-11-23T05:30:17;11.27;;;0.90;;
66957;SDS011;53892;43.258;-2.932;2022-11-23T05:32:43;2.47;;;0.30;;
66957;SDS011;53892;43.258;-2.932;2022-11-23T05:35:09;4.85;;;0.50;;
66957;SDS011;53892;43.258;-2.932;2022-11-23T05:37:36;2.55;;;0.10;;
66957;SDS011;53892;43.258;-2.932;2022-11-23T05:40:03;2.92;;;0.50;;
66957;SDS011;53892;43.258;-2.932;2022-11-23T05:42:29;5.07;;;0.20;;
66957;SDS011;53892;43.258;-2.932;2022-11-23T05:44:55;3.63;;;0.32;;
66957;SDS011;53892;43.258;-2.932;2022-11-23T05:47:22;10.98;;;0.40;;
66957;SDS011;53892;43.258;-2.932;2022-11-23T05:49:48;4.00;;;0.17;;
66957;SDS011;53892;43.258;-2.932;2022-11-23T05:52:15;8.98;;;0.20;;
66957;SDS011;53892;43.258;-2.932;2022-11-23T05:54:41;4.45;;;0.30;;
66957;SDS011;53892;43.258;-2.932;2022-11-23T05:57:07;3.72;;;0.30;;
66957;SDS011;53892;43.258;-2.932;2022-11-23T05:59:33;4.63;;;0.22;;
66957;SDS011;53892;43.258;-2.932;2022-11-23T06:01:59;8.35;;;0.68;;
66957;SDS011;53892;43.258;-2.932;2022-11-23T06:04:26;6.32;;;0.85;;
66957;SDS011;53892;43.258;-2.932;2022-11-23T06:06:52;5.15;;;0.30;;
66957;SDS011;53892;43.258;-2.932;2022-11-23T06:09:25;5.37;;;0.47;;
66957;SDS011;53892;43.258;-2.932;2022-11-23T06:11:52;5.90;;;0.30;;
66957;SDS011;53892;43.258;-2.932;2022-11-23T06:14:18;8.73;;;0.30;;
66957;SDS011;53892;43.258;-2.932;2022-11-23T06:16:44;5.47;;;0.30;;
66957;SDS011;53892;43.258;-2.932;2022-11-23T06:19:10;12.38;;;2.15;;
66957;SDS011;53892;43.258;-2.932;2022-11-23T06:21:36;6.25;;;0.95;;
66957;SDS011;53892;43.258;-2.932;2022-11-23T06:24:02;3.88;;;0.40;;
66957;SDS011;53892;43.258;-2.932;2022-11-23T06:26:29;3.10;;;0.47;;
66957;SDS011;53892;43.258;-2.932;2022-11-23T06:28:55;7.43;;;0.43;;
66957;SDS011;53892;43.258;-2.932;2022-11-23T06:31:22;6.20;;;0.50;;
66957;SDS011;53892;43.258;-2.932;2022-11-23T06:33:48;9.63;;;0.57;;
66957;SDS011;53892;43.258;-2.932;2022-11-23T06:36:14;8.05;;;0.77;;
66957;SDS011;53892;43.258;-2.932;2022-11-23T06:38:40;7.57;;;0.57;;
66957;SDS011;53892;43.258;-2.932;2022-11-23T06:41:06;8.70;;;0.90;;
66957;SDS011;53892;43.258;-2.932;2022-11-23T06:43:32;20.92;;;2.75;;
66957;SDS011;53892;43.258;-2.932;2022-11-23T06:46:01;29.27;;;1.88;;
66957;SDS011;53892;43.258;-2.932;2022-11-23T06:48:27;20.35;;;2.25;;
66957;SDS011;53892;43.258;-2.932;2022-11-23T06:50:53;13.15;;;1.08;;
66957;SDS011;53892;43.258;-2.932;2022-11-23T06:53:19;21.35;;;2.25;;
66957;SDS011;53892;43.258;-2.932;2022-11-23T06:55:45;18.80;;;1.75;;
66957;SDS011;53892;43.258;-2.932;2022-11-23T06:58:11;25.63;;;2.67;;
66957;SDS011;53892;43.258;-2.932;2022-11-23T07:00:38;16.13;;;1.52;;
66957;SDS011;53892;43.258;-2.932;2022-11-23T07:03:04;26.73;;;2.75;;
66957;SDS011;53892;43.258;-2.932;2022-11-23T07:05:30;19.75;;;1.90;;
66957;SDS011;53892;43.258;-2.932;2022-11-23T07:07:56;33.80;;;4.25;;
66957;SDS011;53892;43.258;-2.932;2022-11-23T07:10:22;18.38;;;1.90;;
66957;SDS011;53892;43.258;-2.932;2022-11-23T07:12:49;34.95;;;2.47;;
66957;SDS011;53892;43.258;-2.932;2022-11-23T07:15:15;30.00;;;2.05;;
66957;SDS011;53892;43.258;-2.932;2022-11-23T07:17:42;33.53;;;2.75;;
66957;SDS011;53892;43.258;-2.932;2022-11-23T07:20:09;22.63;;;2.00;;
66957;SDS011;53892;43.258;-2.932;2022-11-23T07:22:35;30.80;;;2.60;;
66957;SDS011;53892;43.258;-2.932;2022-11-23T07:25:04;20.27;;;2.35;;
66957;SDS011;53892;43.258;-2.932;2022-11-23T07:27:33;35.45;;;3.50;;
66957;SDS011;53892;43.258;-2.932;2022-11-23T07:30:09;35.20;;;2.92;;
66957;SDS011;53892;43.258;-2.932;2022-11-23T07:32:35;29.23;;;2.83;;
66957;SDS011;53892;43.258;-2.932;2022-11-23T07:35:01;29.00;;;4.43;;
66957;SDS011;53892;43.258;-2.932;2022-11-23T07:37:57;41.45;;;4.38;;
66957;SDS011;53892;43.258;-2.932;2022-11-23T07:40:24;42.75;;;6.18;;
66957;SDS011;53892;43.258;-2.932;2022-11-23T07:42:50;37.22;;;4.50;;
66957;SDS011;53892;43.258;-2.932;2022-11-23T07:45:26;32.40;;;4.32;;
66957;SDS011;53892;43.258;-2.932;2022-11-23T07:48:04;36.83;;;4.43;;
66957;SDS011;53892;43.258;-2.932;2022-11-23T07:50:31;30.08;;;3.22;;
66957;SDS011;53892;43.258;-2.932;2022-11-23T07:53:03;31.02;;;4.00;;
66957;SDS011;53892;43.258;-2.932;2022-11-23T07:55:30;44.22;;;4.63;;
66957;SDS011;53892;43.258;-2.932;2022-11-23T07:57:57;30.05;;;2.50;;
66957;SDS011;53892;43.258;-2.932;2022-11-23T08:00:25;48.42;;;4.00;;
66957;SDS011;53892;43.258;-2.932;2022-11-23T08:02:51;35.50;;;4.13;;
66957;SDS011;53892;43.258;-2.932;2022-11-23T08:05:20;34.40;;;3.33;;
66957;SDS011;53892;43.258;-2.932;2022-11-23T08:07:47;54.80;;;5.85;;
66957;SDS011;53892;43.258;-2.932;2022-11-23T08:10:13;42.65;;;3.92;;
66957;SDS011;53892;43.258;-2.932;2022-11-23T08:12:39;47.55;;;5.85;;
66957;SDS011;53892;43.258;-2.932;2022-11-23T08:15:06;57.50;;;6.03;;
66957;SDS011;53892;43.258;-2.932;2022-11-23T08:17:33;40.50;;;5.05;;
66957;SDS011;53892;43.258;-2.932;2022-11-23T08:19:59;44.78;;;4.82;;
66957;SDS011;53892;43.258;-2.932;2022-11-23T08:22:25;45.42;;;4.43;;
66957;SDS011;53892;43.258;-2.932;2022-11-23T08:24:51;53.72;;;6.63;;
66957;SDS011;53892;43.258;-2.932;2022-11-23T08:27:29;27.80;;;4.45;;
66957;SDS011;53892;43.258;-2.932;2022-11-23T08:29:58;40.25;;;5.00;;
66957;SDS011;53892;43.258;-2.932;2022-11-23T08:32:28;40.67;;;4.60;;
66957;SDS011;53892;43.258;-2.932;2022-11-23T08:34:57;39.13;;;4.53;;
66957;SDS011;53892;43.258;-2.932;2022-11-23T08:37:23;34.38;;;4.63;;
66957;SDS011;53892;43.258;-2.932;2022-11-23T08:39:49;30.67;;;3.65;;
66957;SDS011;53892;43.258;-2.932;2022-11-23T08:42:16;34.75;;;4.05;;
66957;SDS011;53892;43.258;-2.932;2022-11-23T08:44:42;35.95;;;3.22;;
66957;SDS011;53892;43.258;-2.932;2022-11-23T08:47:11;24.45;;;2.33;;
66957;SDS011;53892;43.258;-2.932;2022-11-23T08:49:44;24.73;;;2.95;;
66957;SDS011;53892;43.258;-2.932;2022-11-23T08:52:11;29.67;;;2.67;;
66957;SDS011;53892;43.258;-2.932;2022-11-23T08:54:37;24.15;;;2.30;;
66957;SDS011;53892;43.258;-2.932;2022-11-23T08:57:05;34.55;;;3.38;;
66957;SDS011;53892;43.258;-2.932;2022-11-23T08:59:32;18.98;;;3.10;;
66957;SDS011;53892;43.258;-2.932;2022-11-23T09:01:58;28.02;;;2.65;;
66957;SDS011;53892;43.258;-2.932;2022-11-23T09:04:26;20.38;;;1.95;;
66957;SDS011;53892;43.258;-2.932;2022-11-23T09:06:55;25.60;;;2.45;;
66957;SDS011;53892;43.258;-2.932;2022-11-23T09:09:21;26.77;;;2.65;;
66957;SDS011;53892;43.258;-2.932;2022-11-23T09:11:47;18.70;;;1.27;;
66957;SDS011;53892;43.258;-2.932;2022-11-23T09:14:14;22.88;;;2.25;;
66957;SDS011;53892;43.258;-2.932;2022-11-23T09:23:03;32.75;;;2.45;;
66957;SDS011;53892;43.258;-2.932;2022-11-23T09:25:30;19.23;;;1.83;;
66957;SDS011;53892;43.258;-2.932;2022-11-23T09:27:57;25.98;;;2.55;;
66957;SDS011;53892;43.258;-2.932;2022-11-23T09:30:26;20.38;;;1.73;;
66957;SDS011;53892;43.258;-2.932;2022-11-23T09:32:54;12.73;;;1.35;;
66957;SDS011;53892;43.258;-2.932;2022-11-23T09:35:21;28.70;;;2.58;;
66957;SDS011;53892;43.258;-2.932;2022-11-23T09:38:00;24.23;;;2.15;;
66957;SDS011;53892;43.258;-2.932;2022-11-23T09:40:31;21.88;;;1.77;;
66957;SDS011;53892;43.258;-2.932;2022-11-23T09:45:46;24.58;;;2.17;;
66957;SDS011;53892;43.258;-2.932;2022-11-23T09:48:14;27.75;;;2.55;;
66957;SDS011;53892;43.258;-2.932;2022-11-23T09:50:47;28.67;;;2.47;;
66957;SDS011;53892;43.258;-2.932;2022-11-23T09:53:15;22.35;;;1.88;;
66957;SDS011;53892;43.258;-2.932;2022-11-23T09:55:52;21.30;;;2.28;;
66957;SDS011;53892;43.258;-2.932;2022-11-23T09:58:29;21.55;;;1.83;;
66957;SDS011;53892;43.258;-2.932;2022-11-23T10:01:05;23.83;;;1.80;;
66957;SDS011;53892;43.258;-2.932;2022-11-23T10:03:35;20.45;;;2.85;;
66957;SDS011;53892;43.258;-2.932;2022-11-23T10:06:20;23.80;;;2.38;;
66957;SDS011;53892;43.258;-2.932;2022-11-23T10:16:27;38.53;;;3.00;;
66957;SDS011;53892;43.258;-2.932;2022-11-23T10:27:18;28.85;;;3.20;;
66957;SDS011;53892;43.258;-2.932;2022-11-23T10:29:45;29.05;;;2.15;;
66957;SDS011;53892;43.258;-2.932;2022-11-23T10:32:33;10.70;;;2.17;;
66957;SDS011;53892;43.258;-2.932;2022-11-23T10:35:15;32.67;;;2.00;;
66957;SDS011;53892;43.258;-2.932;2022-11-23T10:37:42;15.60;;;1.45;;
66957;SDS011;53892;43.258;-2.932;2022-11-23T10:40:23;21.50;;;1.10;;
66957;SDS011;53892;43.258;-2.932;2022-11-23T10:42:52;29.92;;;1.92;;
66957;SDS011;53892;43.258;-2.932;2022-11-23T10:45:19;26.88;;;4.18;;
66957;SDS011;53892;43.258;-2.932;2022-11-23T10:47:51;25.23;;;2.47;;
66957;SDS011;53892;43.258;-2.932;2022-11-23T10:50:24;20.15;;;2.55;;
66957;SDS011;53892;43.258;-2.932;2022-11-23T10:52:52;17.48;;;2.22;;
66957;SDS011;53892;43.258;-2.932;2022-11-23T10:55:21;22.35;;;2.13;;
66957;SDS011;53892;43.258;-2.932;2022-11-23T10:57:49;21.15;;;2.40;;
66957;SDS011;53892;43.258;-2.932;2022-11-23T11:00:16;18.17;;;2.63;;
66957;SDS011;53892;43.258;-2.932;2022-11-23T11:02:47;27.67;;;2.60;;
66957;SDS011;53892;43.258;-2.932;2022-11-23T11:11:00;16.83;;;1.25;;
66957;SDS011;53892;43.258;-2.932;2022-11-23T11:16:32;15.77;;;1.60;;
66957;SDS011;53892;43.258;-2.932;2022-11-23T11:21:55;24.10;;;2.05;;
66957;SDS011;53892;43.258;-2.932;2022-11-23T11:24:37;21.98;;;1.80;;
66957;SDS011;53892;43.258;-2.932;2022-11-23T11:36:40;28.85;;;2.90;;
66957;SDS011;53892;43.258;-2.932;2022-11-23T11:39:19;22.10;;;3.63;;
66957;SDS011;53892;43.258;-2.932;2022-11-23T11:41:47;21.15;;;1.73;;
66957;SDS011;53892;43.258;-2.932;2022-11-23T11:44:20;20.65;;;1.60;;
66957;SDS011;53892;43.258;-2.932;2022-11-23T11:46:48;20.35;;;2.35;;
66957;SDS011;53892;43.258;-2.932;2022-11-23T11:49:35;33.70;;;3.13;;
66957;SDS011;53892;43.258;-2.932;2022-11-23T11:52:22;23.23;;;2.00;;
66957;SDS011;53892;43.258;-2.932;2022-11-23T11:57:33;17.30;;;2.17;;
66957;SDS011;53892;43.258;-2.932;2022-11-23T12:00:02;27.77;;;1.90;;
66957;SDS011;53892;43.258;-2.932;2022-11-23T12:02:32;21.40;;;2.00;;
66957;SDS011;53892;43.258;-2.932;2022-11-23T12:10:37;26.42;;;2.30;;
66957;SDS011;53892;43.258;-2.932;2022-11-23T12:13:11;26.20;;;2.20;;
66957;SDS011;53892;43.258;-2.932;2022-11-23T12:15:39;14.82;;;1.35;;
66957;SDS011;53892;43.258;-2.932;2022-11-23T12:25:33;27.38;;;1.40;;
66957;SDS011;53892;43.258;-2.932;2022-11-23T12:30:56;12.10;;;1.60;;
66957;SDS011;53892;43.258;-2.932;2022-11-23T12:36:20;13.77;;;1.85;;
66957;SDS011;53892;43.258;-2.932;2022-11-23T12:38:59;12.95;;;1.35;;
66957;SDS011;53892;43.258;-2.932;2022-11-23T12:49:46;19.05;;;1.45;;
66957;SDS011;53892;43.258;-2.932;2022-11-23T12:57:53;21.50;;;2.50;;
66957;SDS011;53892;43.258;-2.932;2022-11-23T13:00:24;15.38;;;1.70;;
66957;SDS011;53892;43.258;-2.932;2022-11-23T13:03:02;16.67;;;1.80;;
66957;SDS011;53892;43.258;-2.932;2022-11-23T13:13:31;14.30;;;1.58;;
66957;SDS011;53892;43.258;-2.932;2022-11-23T13:24:03;17.92;;;1.52;;
66957;SDS011;53892;43.258;-2.932;2022-11-23T13:26:39;19.20;;;1.70;;
66957;SDS011;53892;43.258;-2.932;2022-11-23T13:32:22;16.23;;;2.10;;
66957;SDS011;53892;43.258;-2.932;2022-11-23T13:34:42;16.13;;;1.50;;
66957;SDS011;53892;43.258;-2.932;2022-11-23T13:37:08;15.38;;;1.98;;
66957;SDS011;53892;43.258;-2.932;2022-11-23T13:42:12;20.02;;;1.50;;
66957;SDS011;53892;43.258;-2.932;2022-11-23T13:44:38;13.68;;;1.70;;
66957;SDS011;53892;43.258;-2.932;2022-11-23T13:49:46;12.20;;;1.58;;
66957;SDS011;53892;43.258;-2.932;2022-11-23T13:54:52;24.80;;;3.42;;
66957;SDS011;53892;43.258;-2.932;2022-11-23T13:57:19;21.75;;;1.52;;
66957;SDS011;53892;43.258;-2.932;2022-11-23T13:59:47;17.33;;;2.20;;
66957;SDS011;53892;43.258;-2.932;2022-11-23T14:02:27;21.92;;;2.22;;
66957;SDS011;53892;43.258;-2.932;2022-11-23T14:07:42;18.05;;;2.17;;
66957;SDS011;53892;43.258;-2.932;2022-11-23T14:10:19;16.40;;;2.03;;
66957;SDS011;53892;43.258;-2.932;2022-11-23T14:12:48;22.98;;;3.55;;
66957;SDS011;53892;43.258;-2.932;2022-11-23T14:15:15;18.45;;;1.30;;
66957;SDS011;53892;43.258;-2.932;2022-11-23T14:35:50;18.30;;;1.75;;
66957;SDS011;53892;43.258;-2.932;2022-11-23T14:43:39;20.25;;;2.55;;
66957;SDS011;53892;43.258;-2.932;2022-11-23T14:46:12;11.73;;;1.17;;
66957;SDS011;53892;43.258;-2.932;2022-11-23T14:48:39;21.85;;;2.10;;
66957;SDS011;53892;43.258;-2.932;2022-11-23T14:51:17;17.30;;;1.60;;
66957;SDS011;53892;43.258;-2.932;2022-11-23T14:53:48;20.13;;;2.00;;
66957;SDS011;53892;43.258;-2.932;2022-11-23T14:59:08;17.20;;;1.35;;
66957;SDS011;53892;43.258;-2.932;2022-11-23T15:01:35;10.30;;;1.23;;
66957;SDS011;53892;43.258;-2.932;2022-11-23T15:04:09;16.27;;;1.50;;
66957;SDS011;53892;43.258;-2.932;2022-11-23T15:06:39;12.73;;;1.67;;
66957;SDS011;53892;43.258;-2.932;2022-11-23T15:14:54;17.98;;;1.85;;
66957;SDS011;53892;43.258;-2.932;2022-11-23T15:17:27;22.63;;;2.20;;
66957;SDS011;53892;43.258;-2.932;2022-11-23T15:20:11;13.63;;;2.03;;
66957;SDS011;53892;43.258;-2.932;2022-11-23T15:25:26;19.17;;;1.52;;
66957;SDS011;53892;43.258;-2.932;2022-11-23T15:28:00;21.20;;;1.50;;
66957;SDS011;53892;43.258;-2.932;2022-11-23T15:30:28;18.73;;;1.75;;
66957;SDS011;53892;43.258;-2.932;2022-11-23T15:33:03;21.70;;;1.45;;
66957;SDS011;53892;43.258;-2.932;2022-11-23T15:35:39;16.80;;;1.13;;
66957;SDS011;53892;43.258;-2.932;2022-11-23T15:38:29;17.95;;;1.10;;
66957;SDS011;53892;43.258;-2.932;2022-11-23T15:40:56;23.98;;;2.85;;
66957;SDS011;53892;43.258;-2.932;2022-11-23T15:43:29;19.95;;;1.98;;
66957;SDS011;53892;43.258;-2.932;2022-11-23T15:45:59;22.77;;;1.95;;
66957;SDS011;53892;43.258;-2.932;2022-11-23T15:48:33;22.52;;;1.80;;
66957;SDS011;53892;43.258;-2.932;2022-11-23T15:51:17;20.90;;;3.20;;
66957;SDS011;53892;43.258;-2.932;2022-11-23T15:53:47;21.48;;;2.25;;
66957;SDS011;53892;43.258;-2.932;2022-11-23T15:56:36;22.90;;;1.85;;
66957;SDS011;53892;43.258;-2.932;2022-11-23T15:59:04;21.85;;;2.42;;
66957;SDS011;53892;43.258;-2.932;2022-11-23T16:01:40;21.58;;;2.17;;
66957;SDS011;53892;43.258;-2.932;2022-11-23T16:06:49;29.08;;;2.22;;
66957;SDS011;53892;43.258;-2.932;2022-11-23T16:09:31;20.00;;;2.47;;
66957;SDS011;53892;43.258;-2.932;2022-11-23T16:11:58;18.27;;;2.35;;
66957;SDS011;53892;43.258;-2.932;2022-11-23T16:14:28;21.10;;;2.63;;
66957;SDS011;53892;43.258;-2.932;2022-11-23T16:16:58;15.13;;;1.55;;
66957;SDS011;53892;43.258;-2.932;2022-11-23T16:19:26;22.67;;;2.00;;
66957;SDS011;53892;43.258;-2.932;2022-11-23T16:21:54;18.42;;;2.97;;
66957;SDS011;53892;43.258;-2.932;2022-11-23T16:24:21;18.70;;;2.08;;
66957;SDS011;53892;43.258;-2.932;2022-11-23T16:26:47;25.33;;;1.98;;
66957;SDS011;53892;43.258;-2.932;2022-11-23T16:29:24;19.42;;;2.53;;
66957;SDS011;53892;43.258;-2.932;2022-11-23T16:31:55;23.83;;;2.95;;
66957;SDS011;53892;43.258;-2.932;2022-11-23T16:34:21;12.40;;;2.20;;
66957;SDS011;53892;43.258;-2.932;2022-11-23T16:36:48;25.70;;;2.67;;
66957;SDS011;53892;43.258;-2.932;2022-11-23T16:39:14;17.98;;;1.58;;
66957;SDS011;53892;43.258;-2.932;2022-11-23T16:41:40;20.55;;;1.73;;
66957;SDS011;53892;43.258;-2.932;2022-11-23T16:44:06;23.70;;;1.55;;
66957;SDS011;53892;43.258;-2.932;2022-11-23T16:46:32;13.75;;;2.13;;
66957;SDS011;53892;43.258;-2.932;2022-11-23T16:48:59;13.30;;;1.05;;
66957;SDS011;53892;43.258;-2.932;2022-11-23T16:51:25;13.10;;;1.58;;
66957;SDS011;53892;43.258;-2.932;2022-11-23T16:53:52;26.40;;;2.67;;
66957;SDS011;53892;43.258;-2.932;2022-11-23T16:56:20;18.58;;;1.65;;
66957;SDS011;53892;43.258;-2.932;2022-11-23T16:58:47;16.73;;;1.42;;
66957;SDS011;53892;43.258;-2.932;2022-11-23T17:01:16;13.98;;;1.02;;
66957;SDS011;53892;43.258;-2.932;2022-11-23T17:03:42;15.65;;;1.40;;
66957;SDS011;53892;43.258;-2.932;2022-11-23T17:06:12;12.02;;;1.20;;